Twin City, Georgia
Current Conditions -  °F | °C
As of 3:35 AM on Monday 22 Dec 2014 (Local Time) from KTBR Reporting Station
Light Rain Light Rain  
Wind Chill: 44°   Ceiling: 300
Heat Index: 47°   Visibility: 3mi
Dew Point: 47°   Wind: 6mph
Humidity: 100%   Direction: 30°NNE
Pressure: 30.03"   Gusts: NA
Location:  32.58°N, 82.16°W
Report Text: KTBR 220835Z AUTO 03005KT 3SM -RA OVC003 08/08 A3003 RMK AO2 T00830083
Loading
Personal Weather Stations






























Interactive Weather Map New forecast layout! Learn more

10-Day Weather Forecast

Advertisements
Track Severe Weather on mobile